Time;durP1;ratioP1;P1;durP2;ratioP2;P2;SDS_P1;SDS_P2;PMS_P1;PMS_P2;Temp;Humidity;BMP_temperature;BMP_pressure;BME280_temperature;BME280_humidity;BME280_pressure;Samples;Min_cycle;Max_cycle;Signal;HPM_P1;HPM_P2
2023/12/14 00:01:30;;;;;;;19.03;15.57;;;;;;;;;;4972895;28;20199;-79
2023/12/14 00:03:56;;;;;;;18.57;13.97;;;;;;;;;;4991350;28;20191;-79
2023/12/14 00:06:23;;;;;;;23.03;16.20;;;;;;;;;;4990051;28;20596;-79
2023/12/14 00:08:49;;;;;;;18.07;14.43;;;;;;;;;;4973603;28;20231;-79
2023/12/14 00:11:15;;;;;;;18.23;15.37;;;;;;;;;;4973396;28;20191;-79
2023/12/14 00:13:41;;;;;;;19.43;15.03;;;;;;;;;;4972812;28;20203;-79
2023/12/14 00:16:08;;;;;;;19.67;14.97;;;;;;;;;;4989202;28;20192;-79
2023/12/14 00:18:35;;;;;;;17.17;14.60;;;;;;;;;;4989263;28;20779;-79
2023/12/14 00:21:01;;;;;;;17.63;14.53;;;;;;;;;;4989359;28;20586;-79
2023/12/14 00:23:27;;;;;;;18.07;14.53;;;;;;;;;;4973675;28;20676;-79
2023/12/14 00:25:53;;;;;;;21.83;15.83;;;;;;;;;;4989912;28;20198;-79
2023/12/14 00:28:19;;;;;;;19.33;15.70;;;;;;;;;;4987660;28;20207;-79
2023/12/14 00:30:45;;;;;;;17.67;14.83;;;;;;;;;;4988149;28;20210;-79
2023/12/14 00:33:11;;;;;;;19.80;15.33;;;;;;;;;;4989594;28;20187;-79
2023/12/14 00:35:37;;;;;;;16.97;14.57;;;;;;;;;;4987765;28;20217;-79
2023/12/14 00:38:04;;;;;;;15.77;14.03;;;;;;;;;;4972925;28;20218;-79
2023/12/14 00:40:30;;;;;;;17.47;13.60;;;;;;;;;;4989266;28;20558;-79
2023/12/14 00:42:56;;;;;;;18.00;13.73;;;;;;;;;;4972629;28;20190;-80
2023/12/14 00:45:22;;;;;;;17.37;14.60;;;;;;;;;;4988191;28;20250;-81
2023/12/14 00:47:48;;;;;;;16.07;13.50;;;;;;;;;;4989220;28;20278;-80
2023/12/14 00:50:14;;;;;;;16.90;13.63;;;;;;;;;;4990279;28;20326;-81
2023/12/14 00:52:40;;;;;;;16.40;13.90;;;;;;;;;;4965789;28;20210;-80
2023/12/14 00:55:06;;;;;;;16.13;13.13;;;;;;;;;;4986972;28;20542;-80
2023/12/14 00:57:33;;;;;;;16.13;13.77;;;;;;;;;;4988054;28;20227;-79
2023/12/14 00:59:59;;;;;;;19.00;15.20;;;;;;;;;;4989443;28;20250;-79
2023/12/14 01:02:25;;;;;;;18.97;14.53;;;;;;;;;;5005106;28;20291;-79
2023/12/14 01:04:51;;;;;;;25.83;16.80;;;;;;;;;;4986660;28;20270;-79
2023/12/14 01:07:17;;;;;;;31.07;18.53;;;;;;;;;;4989056;28;20737;-79
2023/12/14 01:09:43;;;;;;;29.87;19.30;;;;;;;;;;4973022;28;20306;-79
2023/12/14 01:12:09;;;;;;;34.00;20.27;;;;;;;;;;4985239;28;20254;-79
2023/12/14 01:14:35;;;;;;;37.50;20.47;;;;;;;;;;4987222;28;20208;-79
2023/12/14 01:17:02;;;;;;;43.50;23.20;;;;;;;;;;4972837;28;20179;-79
2023/12/14 01:19:28;;;;;;;46.93;25.07;;;;;;;;;;4972563;28;20204;-79
2023/12/14 01:21:55;;;;;;;31.13;19.20;;;;;;;;;;4990636;28;20624;-79
2023/12/14 01:24:21;;;;;;;43.43;22.53;;;;;;;;;;4992141;28;20188;-80
2023/12/14 01:26:47;;;;;;;31.47;20.07;;;;;;;;;;4992967;28;20527;-81
2023/12/14 01:29:13;;;;;;;32.43;18.73;;;;;;;;;;4974596;28;20211;-80
2023/12/14 01:31:39;;;;;;;37.33;20.77;;;;;;;;;;5008439;28;20196;-79
2023/12/14 01:34:05;;;;;;;24.03;16.00;;;;;;;;;;4977104;28;20226;-79
2023/12/14 01:36:32;;;;;;;19.13;14.70;;;;;;;;;;4992523;28;20184;-80
2023/12/14 01:38:58;;;;;;;17.47;13.67;;;;;;;;;;4993740;28;20531;-79
2023/12/14 01:41:24;;;;;;;21.50;15.73;;;;;;;;;;4968502;28;20199;-80
2023/12/14 01:43:50;;;;;;;17.87;14.80;;;;;;;;;;4976508;28;20192;-79
2023/12/14 01:46:16;;;;;;;15.57;13.63;;;;;;;;;;4990730;28;20700;-79
2023/12/14 01:48:43;;;;;;;15.53;13.80;;;;;;;;;;4983904;28;20172;-79
2023/12/14 01:51:09;;;;;;;18.60;14.33;;;;;;;;;;4976245;28;20179;-79
2023/12/14 01:53:35;;;;;;;17.70;13.63;;;;;;;;;;4990386;28;20188;-79
2023/12/14 01:56:01;;;;;;;17.43;13.53;;;;;;;;;;4988965;28;20238;-79
2023/12/14 01:58:27;;;;;;;15.60;13.13;;;;;;;;;;4991041;28;20219;-81
2023/12/14 02:01:13;;;;;;;18.30;13.63;;;;;;;;;;4992245;28;20831;-79
2023/12/14 02:03:46;;;;;;;23.30;16.13;;;;;;;;;;4992430;28;20188;-80
2023/12/14 02:06:13;;;;;;;20.37;13.67;;;;;;;;;;4992291;28;20188;-79
2023/12/14 02:08:39;;;;;;;17.23;13.63;;;;;;;;;;4990004;28;20586;-79
2023/12/14 02:11:05;;;;;;;19.77;14.67;;;;;;;;;;4980301;28;20315;-79
2023/12/14 02:13:31;;;;;;;18.23;13.60;;;;;;;;;;4974490;28;20207;-79
2023/12/14 02:15:57;;;;;;;17.83;13.60;;;;;;;;;;4993900;28;20227;-79
2023/12/14 02:18:23;;;;;;;15.17;12.70;;;;;;;;;;4975209;28;20198;-81
2023/12/14 02:20:49;;;;;;;16.63;13.33;;;;;;;;;;4975303;28;20188;-79
2023/12/14 02:23:15;;;;;;;18.73;14.10;;;;;;;;;;4989206;28;20312;-79
2023/12/14 02:25:42;;;;;;;17.80;13.03;;;;;;;;;;4986031;28;20675;-79
2023/12/14 02:28:08;;;;;;;20.10;14.97;;;;;;;;;;4977698;28;20221;-79
2023/12/14 02:30:34;;;;;;;19.07;14.63;;;;;;;;;;4990465;28;20337;-79
2023/12/14 02:33:00;;;;;;;17.17;14.63;;;;;;;;;;4975887;28;20200;-80
2023/12/14 02:35:26;;;;;;;15.47;12.80;;;;;;;;;;4990617;28;20215;-79
2023/12/14 02:37:52;;;;;;;16.33;13.13;;;;;;;;;;4992857;28;20234;-80
2023/12/14 02:40:18;;;;;;;18.43;14.10;;;;;;;;;;4985064;28;20223;-81
2023/12/14 02:42:44;;;;;;;18.70;14.77;;;;;;;;;;4974847;28;20184;-82
2023/12/14 02:45:11;;;;;;;15.47;13.23;;;;;;;;;;4985325;28;20180;-80
2023/12/14 02:47:37;;;;;;;16.63;13.40;;;;;;;;;;4987732;28;20560;-80
2023/12/14 02:50:03;;;;;;;20.70;14.77;;;;;;;;;;4988078;28;20212;-79
2023/12/14 02:52:30;;;;;;;13.40;10.93;;;;;;;;;;4984349;28;20226;-79
2023/12/14 02:54:56;;;;;;;13.13;11.00;;;;;;;;;;4989730;28;20735;-81
2023/12/14 02:57:22;;;;;;;15.80;11.13;;;;;;;;;;4974718;28;20211;-79
2023/12/14 02:59:48;;;;;;;14.53;11.80;;;;;;;;;;4990267;28;20207;-79
2023/12/14 03:02:14;;;;;;;16.20;12.90;;;;;;;;;;4988407;28;20254;-79
2023/12/14 03:04:41;;;;;;;15.27;11.80;;;;;;;;;;4983815;28;20291;-79
2023/12/14 03:07:07;;;;;;;15.33;12.87;;;;;;;;;;4987958;28;20716;-81
2023/12/14 03:09:33;;;;;;;18.10;12.70;;;;;;;;;;4973295;28;20203;-81
2023/12/14 03:12:00;;;;;;;15.93;12.57;;;;;;;;;;4992126;28;20200;-79
2023/12/14 03:14:26;;;;;;;17.67;13.67;;;;;;;;;;4975427;28;20220;-79
2023/12/14 03:16:53;;;;;;;16.50;13.70;;;;;;;;;;4974042;28;20753;-79
2023/12/14 03:19:19;;;;;;;15.50;12.77;;;;;;;;;;4990458;28;20207;-81
2023/12/14 03:21:45;;;;;;;17.03;13.57;;;;;;;;;;4973706;28;20286;-80
2023/12/14 03:24:11;;;;;;;14.87;12.73;;;;;;;;;;4990137;28;20180;-80
2023/12/14 03:26:37;;;;;;;16.27;13.37;;;;;;;;;;4973281;28;20727;-80
2023/12/14 03:29:04;;;;;;;15.40;12.97;;;;;;;;;;4990202;28;20314;-79
2023/12/14 03:31:30;;;;;;;16.13;12.73;;;;;;;;;;4989056;28;20191;-79
2023/12/14 03:33:56;;;;;;;15.40;12.23;;;;;;;;;;4990369;28;20553;-79
2023/12/14 03:36:26;;;;;;;16.60;13.17;;;;;;;;;;4991603;28;20183;-79
2023/12/14 03:38:52;;;;;;;17.83;13.37;;;;;;;;;;4989989;28;20204;-79
2023/12/14 03:41:18;;;;;;;16.77;13.10;;;;;;;;;;4989315;28;20673;-80
2023/12/14 03:43:44;;;;;;;15.13;11.33;;;;;;;;;;4989140;28;20187;-80
2023/12/14 03:46:10;;;;;;;16.87;13.83;;;;;;;;;;4989525;28;20184;-79
2023/12/14 03:48:37;;;;;;;15.83;12.77;;;;;;;;;;4983001;28;20207;-79
2023/12/14 03:51:03;;;;;;;13.20;11.80;;;;;;;;;;4959439;28;20197;-79
2023/12/14 03:53:30;;;;;;;12.83;11.27;;;;;;;;;;4991807;28;20184;-81
2023/12/14 03:55:56;;;;;;;15.27;11.67;;;;;;;;;;4989128;28;20557;-81
2023/12/14 03:58:22;;;;;;;15.07;11.83;;;;;;;;;;4971879;28;20199;-81
2023/12/14 04:00:48;;;;;;;15.03;12.50;;;;;;;;;;4989376;28;20203;-80
2023/12/14 04:03:14;;;;;;;14.50;12.40;;;;;;;;;;4989916;28;20188;-80
2023/12/14 04:05:40;;;;;;;15.37;12.43;;;;;;;;;;4972564;28;20231;-79
2023/12/14 04:08:07;;;;;;;16.63;12.77;;;;;;;;;;4989896;28;20203;-79
2023/12/14 04:10:33;;;;;;;15.80;12.80;;;;;;;;;;4989513;28;20216;-79
2023/12/14 04:12:59;;;;;;;17.93;13.27;;;;;;;;;;4960916;28;20204;-79
2023/12/14 04:15:25;;;;;;;13.40;11.37;;;;;;;;;;4973177;28;20215;-79
2023/12/14 04:17:51;;;;;;;13.00;10.97;;;;;;;;;;4989811;28;20180;-79
2023/12/14 04:20:17;;;;;;;15.90;13.00;;;;;;;;;;4988776;28;20664;-79
2023/12/14 04:22:45;;;;;;;13.57;11.60;;;;;;;;;;4988900;28;20211;-79
2023/12/14 04:25:11;;;;;;;15.20;11.83;;;;;;;;;;4989686;28;20188;-79
2023/12/14 04:27:37;;;;;;;18.03;13.40;;;;;;;;;;4989278;28;20565;-79
2023/12/14 04:30:04;;;;;;;18.80;13.20;;;;;;;;;;4989897;28;20218;-79
2023/12/14 04:32:31;;;;;;;14.17;12.00;;;;;;;;;;4972992;28;20196;-80
2023/12/14 04:34:57;;;;;;;16.80;12.17;;;;;;;;;;4977460;28;20211;-79
2023/12/14 04:37:23;;;;;;;18.10;13.00;;;;;;;;;;4989265;28;20188;-80
2023/12/14 04:39:50;;;;;;;14.20;12.17;;;;;;;;;;4989196;28;20302;-79
2023/12/14 04:42:16;;;;;;;15.53;12.67;;;;;;;;;;4973276;28;20180;-82
2023/12/14 04:44:42;;;;;;;19.33;14.47;;;;;;;;;;4972663;28;20671;-80
2023/12/14 04:47:09;;;;;;;15.60;12.77;;;;;;;;;;4988296;28;20202;-80
2023/12/14 04:49:35;;;;;;;15.93;12.67;;;;;;;;;;4973510;28;20211;-82
2023/12/14 04:52:01;;;;;;;18.80;13.20;;;;;;;;;;4989309;28;20199;-81
2023/12/14 04:54:27;;;;;;;17.27;12.20;;;;;;;;;;4987768;28;20203;-80
2023/12/14 04:56:53;;;;;;;14.27;12.13;;;;;;;;;;4968452;28;20203;-80
2023/12/14 04:59:19;;;;;;;18.53;14.60;;;;;;;;;;4989459;28;20206;-80
2023/12/14 05:01:45;;;;;;;15.10;12.23;;;;;;;;;;4960599;28;20599;-81
2023/12/14 05:04:11;;;;;;;13.57;11.73;;;;;;;;;;4992967;28;20186;-79
2023/12/14 05:06:38;;;;;;;16.03;12.50;;;;;;;;;;4992333;28;20180;-79
2023/12/14 05:09:06;;;;;;;16.03;13.17;;;;;;;;;;4973696;28;20707;-79
2023/12/14 05:11:33;;;;;;;14.17;12.43;;;;;;;;;;4976717;28;20604;-79
2023/12/14 05:13:59;;;;;;;15.20;12.73;;;;;;;;;;4992336;28;20195;-79
2023/12/14 05:16:28;;;;;;;14.03;11.43;;;;;;;;;;4976455;28;20208;-80
2023/12/14 05:18:54;;;;;;;14.80;12.40;;;;;;;;;;4976718;28;20762;-79
2023/12/14 05:21:20;;;;;;;12.87;11.40;;;;;;;;;;4976542;28;20188;-79
2023/12/14 05:23:47;;;;;;;14.30;11.93;;;;;;;;;;4989414;28;20218;-79
2023/12/14 05:26:13;;;;;;;17.90;12.93;;;;;;;;;;4976812;28;20234;-79
2023/12/14 05:28:39;;;;;;;14.73;12.10;;;;;;;;;;4975341;28;20231;-79
2023/12/14 05:31:05;;;;;;;14.60;11.83;;;;;;;;;;4992530;28;20184;-79
2023/12/14 05:33:33;;;;;;;13.57;12.07;;;;;;;;;;4992896;28;20195;-81
2023/12/14 05:35:59;;;;;;;13.40;10.97;;;;;;;;;;4990303;28;20214;-81
2023/12/14 05:38:26;;;;;;;14.03;11.60;;;;;;;;;;4989598;28;20184;-79
2023/12/14 05:40:52;;;;;;;16.27;12.60;;;;;;;;;;4975872;28;20232;-79
2023/12/14 05:43:18;;;;;;;15.37;11.90;;;;;;;;;;4974799;28;20286;-79
2023/12/14 05:45:44;;;;;;;13.67;11.50;;;;;;;;;;4993721;28;20687;-79
2023/12/14 05:48:10;;;;;;;16.93;12.37;;;;;;;;;;4992733;28;20207;-79
2023/12/14 05:50:37;;;;;;;12.80;11.27;;;;;;;;;;4988927;28;20212;-79
2023/12/14 05:53:03;;;;;;;13.97;12.47;;;;;;;;;;4992447;28;20267;-82
2023/12/14 05:55:29;;;;;;;14.10;11.83;;;;;;;;;;4991773;28;20215;-79
2023/12/14 05:57:56;;;;;;;14.77;12.20;;;;;;;;;;4991567;28;20267;-79
2023/12/14 06:00:22;;;;;;;18.13;13.60;;;;;;;;;;4975239;28;20262;-81
2023/12/14 06:02:48;;;;;;;18.33;13.20;;;;;;;;;;4991340;28;20569;-80
2023/12/14 06:05:14;;;;;;;17.73;13.20;;;;;;;;;;4974889;28;20195;-79
2023/12/14 06:07:41;;;;;;;14.77;12.63;;;;;;;;;;4976194;28;20600;-79
2023/12/14 06:10:07;;;;;;;16.20;12.77;;;;;;;;;;4982597;28;20222;-79
2023/12/14 06:12:33;;;;;;;15.37;12.33;;;;;;;;;;4975295;28;20281;-79
2023/12/14 06:14:59;;;;;;;13.90;11.97;;;;;;;;;;4975674;28;20211;-79
2023/12/14 06:17:25;;;;;;;16.53;12.33;;;;;;;;;;4991951;28;20188;-79
2023/12/14 06:19:51;;;;;;;14.87;11.70;;;;;;;;;;4973022;28;20262;-79
2023/12/14 06:22:18;;;;;;;16.93;13.03;;;;;;;;;;4992312;28;20198;-79
2023/12/14 06:24:44;;;;;;;16.50;12.43;;;;;;;;;;4992184;28;20191;-79
2023/12/14 06:27:10;;;;;;;18.60;13.93;;;;;;;;;;4974906;28;20286;-79
2023/12/14 06:29:36;;;;;;;19.23;14.73;;;;;;;;;;4992786;28;20207;-83
2023/12/14 06:32:02;;;;;;;18.83;14.87;;;;;;;;;;4984347;28;20274;-79
2023/12/14 06:34:28;;;;;;;18.87;14.17;;;;;;;;;;4971285;28;20373;-78
2023/12/14 06:36:55;;;;;;;17.60;12.93;;;;;;;;;;4983990;28;20188;-77
2023/12/14 06:39:23;;;;;;;16.67;13.00;;;;;;;;;;4982947;28;20202;-79
2023/12/14 06:41:49;;;;;;;17.03;14.07;;;;;;;;;;4974297;28;20184;-78
2023/12/14 06:44:16;;;;;;;16.70;13.93;;;;;;;;;;4970541;28;20197;-79
2023/12/14 06:46:43;;;;;;;18.23;14.40;;;;;;;;;;4981202;28;20563;-78
2023/12/14 06:49:09;;;;;;;18.57;14.03;;;;;;;;;;4983619;28;20216;-78
2023/12/14 06:51:35;;;;;;;17.90;14.07;;;;;;;;;;4974653;28;20192;-79
2023/12/14 06:54:01;;;;;;;19.73;15.23;;;;;;;;;;4979184;28;20188;-76
2023/12/14 06:56:28;;;;;;;15.67;13.63;;;;;;;;;;4991959;28;20182;-79
2023/12/14 06:58:54;;;;;;;18.20;13.90;;;;;;;;;;4989975;28;20208;-79
2023/12/14 07:01:20;;;;;;;20.47;15.40;;;;;;;;;;4992065;28;20176;-79
2023/12/14 07:03:46;;;;;;;17.93;15.13;;;;;;;;;;4996302;28;20187;-79
2023/12/14 07:06:13;;;;;;;19.17;15.80;;;;;;;;;;4993597;28;20198;-79
2023/12/14 07:08:40;;;;;;;18.50;14.27;;;;;;;;;;4979420;28;20192;-78
2023/12/14 07:11:07;;;;;;;16.30;13.77;;;;;;;;;;4993331;28;20187;-79
2023/12/14 07:13:33;;;;;;;16.37;13.17;;;;;;;;;;4975980;28;20570;-79
2023/12/14 07:15:59;;;;;;;16.27;12.87;;;;;;;;;;4999040;28;20254;-79
2023/12/14 07:18:25;;;;;;;18.77;14.50;;;;;;;;;;4995795;28;20215;-79
2023/12/14 07:20:52;;;;;;;17.40;14.20;;;;;;;;;;4992319;28;20275;-79
2023/12/14 07:23:18;;;;;;;18.63;13.83;;;;;;;;;;4979106;28;20610;-79
2023/12/14 07:25:44;;;;;;;17.87;13.57;;;;;;;;;;4996748;28;20684;-79
2023/12/14 07:28:10;;;;;;;17.03;13.30;;;;;;;;;;4991993;28;20191;-80
2023/12/14 07:30:36;;;;;;;21.57;15.60;;;;;;;;;;4976585;28;20220;-79
2023/12/14 07:33:02;;;;;;;17.93;13.77;;;;;;;;;;4990985;28;20207;-79
2023/12/14 07:35:28;;;;;;;18.67;14.67;;;;;;;;;;4993853;28;20726;-79
2023/12/14 07:37:54;;;;;;;18.13;14.57;;;;;;;;;;4993815;28;20183;-79
2023/12/14 07:40:20;;;;;;;21.80;15.53;;;;;;;;;;4996038;28;20218;-77
2023/12/14 07:42:47;;;;;;;17.13;13.43;;;;;;;;;;4989175;28;20184;-78
2023/12/14 07:45:13;;;;;;;16.63;14.10;;;;;;;;;;4971408;28;20562;-78
2023/12/14 07:47:39;;;;;;;16.60;13.97;;;;;;;;;;4994261;28;20234;-78
2023/12/14 07:50:05;;;;;;;19.37;14.83;;;;;;;;;;4992629;28;20699;-78
2023/12/14 07:52:32;;;;;;;19.73;14.87;;;;;;;;;;4990078;28;20184;-78
2023/12/14 07:54:58;;;;;;;19.13;14.90;;;;;;;;;;4980733;28;20215;-78
2023/12/14 07:57:24;;;;;;;19.27;14.40;;;;;;;;;;4992213;28;20187;-78
2023/12/14 07:59:50;;;;;;;19.10;14.50;;;;;;;;;;4990076;28;20227;-78
2023/12/14 08:02:16;;;;;;;20.87;15.17;;;;;;;;;;4990781;28;20438;-78
2023/12/14 08:04:42;;;;;;;18.27;13.70;;;;;;;;;;4993334;28;20188;-78
2023/12/14 08:07:08;;;;;;;17.60;14.23;;;;;;;;;;4976092;28;20195;-78
2023/12/14 08:09:34;;;;;;;16.70;13.10;;;;;;;;;;4991231;28;20247;-78
2023/12/14 08:12:01;;;;;;;18.60;13.43;;;;;;;;;;4989443;28;20671;-78
2023/12/14 08:14:27;;;;;;;15.93;12.40;;;;;;;;;;4990239;28;20203;-78
2023/12/14 08:16:53;;;;;;;15.23;12.50;;;;;;;;;;4990099;28;20307;-78
2023/12/14 08:19:19;;;;;;;16.70;13.07;;;;;;;;;;4990670;28;20207;-78
2023/12/14 08:21:45;;;;;;;18.33;14.23;;;;;;;;;;4991819;28;20183;-78
2023/12/14 08:24:11;;;;;;;17.33;14.13;;;;;;;;;;4974286;28;20315;-78
2023/12/14 08:26:38;;;;;;;19.40;15.53;;;;;;;;;;4989503;28;20687;-78
2023/12/14 08:29:04;;;;;;;20.43;15.53;;;;;;;;;;4989860;28;20211;-78
2023/12/14 08:31:30;;;;;;;19.80;14.53;;;;;;;;;;4990172;28;20576;-78
2023/12/14 08:33:56;;;;;;;20.87;15.37;;;;;;;;;;4973916;28;20270;-78
2023/12/14 08:36:22;;;;;;;23.60;16.40;;;;;;;;;;4989302;28;20342;-78
2023/12/14 08:38:48;;;;;;;20.80;15.87;;;;;;;;;;4990118;28;20215;-78
2023/12/14 08:41:15;;;;;;;23.27;16.90;;;;;;;;;;4991660;28;20625;-78
2023/12/14 08:43:41;;;;;;;22.23;16.93;;;;;;;;;;4990163;28;20821;-78
2023/12/14 08:46:07;;;;;;;23.13;17.03;;;;;;;;;;4991145;28;20180;-78
2023/12/14 08:48:35;;;;;;;21.37;16.20;;;;;;;;;;4972871;28;20200;-78
2023/12/14 08:51:01;;;;;;;25.20;16.73;;;;;;;;;;4988193;28;20214;-78
2023/12/14 08:53:29;;;;;;;21.50;15.60;;;;;;;;;;4990754;28;20184;-78
2023/12/14 08:55:55;;;;;;;19.97;15.87;;;;;;;;;;4990174;28;20278;-78
2023/12/14 08:58:22;;;;;;;20.90;16.10;;;;;;;;;;4990616;28;20652;-78
2023/12/14 09:00:52;;;;;;;20.70;16.07;;;;;;;;;;4990696;28;20695;-78
2023/12/14 09:03:19;;;;;;;19.57;15.87;;;;;;;;;;4989601;28;20695;-79
2023/12/14 09:05:45;;;;;;;22.10;16.90;;;;;;;;;;4990837;28;20242;-78
2023/12/14 09:08:11;;;;;;;21.43;15.80;;;;;;;;;;4990749;28;20270;-78
2023/12/14 09:10:38;;;;;;;19.37;15.50;;;;;;;;;;4989469;28;20273;-78
2023/12/14 09:13:05;;;;;;;21.37;16.17;;;;;;;;;;4989649;28;20663;-78
2023/12/14 09:15:31;;;;;;;20.07;15.67;;;;;;;;;;4984929;28;20239;-78
2023/12/14 09:17:58;;;;;;;21.13;16.13;;;;;;;;;;4990884;28;20215;-78
2023/12/14 09:20:24;;;;;;;23.23;16.87;;;;;;;;;;4990529;28;20295;-78
2023/12/14 09:22:50;;;;;;;22.47;17.10;;;;;;;;;;4989163;28;20287;-78
2023/12/14 09:25:16;;;;;;;26.17;17.10;;;;;;;;;;4989489;28;20188;-78
2023/12/14 09:27:43;;;;;;;22.50;16.53;;;;;;;;;;4988797;28;20188;-78
2023/12/14 09:30:09;;;;;;;22.67;16.27;;;;;;;;;;4989185;28;20208;-78
2023/12/14 09:32:35;;;;;;;21.67;17.40;;;;;;;;;;4989957;28;20199;-78
2023/12/14 09:35:02;;;;;;;24.50;16.97;;;;;;;;;;4973398;28;20235;-78
2023/12/14 09:37:28;;;;;;;25.97;18.43;;;;;;;;;;4990754;28;20180;-78
2023/12/14 09:39:54;;;;;;;27.17;18.23;;;;;;;;;;4988620;28;20461;-78
2023/12/14 09:42:21;;;;;;;27.17;18.97;;;;;;;;;;4989626;28;20184;-78
2023/12/14 09:44:48;;;;;;;28.03;18.60;;;;;;;;;;4991265;28;20260;-78
2023/12/14 09:47:14;;;;;;;27.63;18.33;;;;;;;;;;4993028;28;20179;-78
2023/12/14 09:49:42;;;;;;;25.30;17.87;;;;;;;;;;4994028;28;20259;-78
2023/12/14 09:52:09;;;;;;;23.57;16.23;;;;;;;;;;4992403;28;20571;-78
2023/12/14 09:54:35;;;;;;;23.03;16.03;;;;;;;;;;4994006;28;20700;-78
2023/12/14 09:57:01;;;;;;;19.37;14.63;;;;;;;;;;4976163;28;20190;-78
2023/12/14 09:59:27;;;;;;;21.50;15.83;;;;;;;;;;4993171;28;20224;-78
2023/12/14 10:01:54;;;;;;;24.33;16.50;;;;;;;;;;4992803;28;20184;-78
2023/12/14 10:04:21;;;;;;;20.90;16.00;;;;;;;;;;4994080;28;20212;-78
2023/12/14 10:06:48;;;;;;;19.70;15.57;;;;;;;;;;4994195;28;20231;-78
2023/12/14 10:09:16;;;;;;;22.00;14.90;;;;;;;;;;4991923;28;20207;-78
2023/12/14 10:11:43;;;;;;;18.80;13.70;;;;;;;;;;4974922;28;20367;-78
2023/12/14 10:14:19;;;;;;;21.50;15.23;;;;;;;;;;4992485;28;20230;-78
2023/12/14 10:16:45;;;;;;;21.47;13.67;;;;;;;;;;4969450;28;20557;-78
2023/12/14 10:19:11;;;;;;;16.30;13.67;;;;;;;;;;4976476;28;20218;-79
2023/12/14 10:21:38;;;;;;;18.43;13.60;;;;;;;;;;4992930;28;20199;-79
2023/12/14 10:24:05;;;;;;;17.27;13.50;;;;;;;;;;4976230;28;20234;-79
2023/12/14 10:26:32;;;;;;;19.00;12.73;;;;;;;;;;4991947;28;20188;-79
2023/12/14 10:28:58;;;;;;;14.47;12.10;;;;;;;;;;4991443;28;20238;-79
2023/12/14 10:31:25;;;;;;;15.30;11.87;;;;;;;;;;4992750;28;20184;-79
2023/12/14 10:33:52;;;;;;;16.03;12.17;;;;;;;;;;4978559;28;20227;-79
2023/12/14 10:36:22;;;;;;;16.67;12.20;;;;;;;;;;4992047;28;20262;-79
2023/12/14 10:38:49;;;;;;;17.53;12.60;;;;;;;;;;4990938;28;20195;-79
2023/12/14 10:41:17;;;;;;;15.83;11.80;;;;;;;;;;4991302;28;20667;-79
2023/12/14 10:43:44;;;;;;;16.03;11.90;;;;;;;;;;4985119;28;20188;-79
2023/12/14 10:46:11;;;;;;;18.13;13.03;;;;;;;;;;4975943;28;20191;-79
2023/12/14 10:48:39;;;;;;;14.80;11.60;;;;;;;;;;4975387;28;20195;-79
2023/12/14 10:51:06;;;;;;;16.17;11.83;;;;;;;;;;4991009;28;20266;-79
2023/12/14 10:53:33;;;;;;;17.57;13.17;;;;;;;;;;4984167;28;20223;-79
2023/12/14 10:56:00;;;;;;;15.00;11.17;;;;;;;;;;4991195;28;20234;-79
2023/12/14 10:58:27;;;;;;;16.33;11.70;;;;;;;;;;4990311;28;20266;-79
2023/12/14 11:01:03;;;;;;;17.70;12.70;;;;;;;;;;4991093;28;20180;-79
2023/12/14 11:03:36;;;;;;;17.97;12.17;;;;;;;;;;4986580;28;20183;-79
2023/12/14 11:06:04;;;;;;;14.87;11.70;;;;;;;;;;4990227;28;20202;-79
2023/12/14 11:08:30;;;;;;;17.27;12.97;;;;;;;;;;4987668;28;20291;-79
2023/12/14 11:11:11;;;;;;;15.10;11.30;;;;;;;;;;4989825;28;20180;-79
2023/12/14 11:13:38;;;;;;;13.97;11.40;;;;;;;;;;4991381;28;20204;-79
2023/12/14 11:16:04;;;;;;;14.47;11.57;;;;;;;;;;4990846;28;20332;-79
2023/12/14 11:18:31;;;;;;;15.30;11.80;;;;;;;;;;4973732;28;20239;-79
2023/12/14 11:21:01;;;;;;;16.23;13.00;;;;;;;;;;4974469;28;20550;-79
2023/12/14 11:23:29;;;;;;;17.03;12.40;;;;;;;;;;4992162;28;20784;-79
2023/12/14 11:26:02;;;;;;;16.97;13.40;;;;;;;;;;4991114;28;20299;-79
2023/12/14 11:28:29;;;;;;;16.57;12.50;;;;;;;;;;4960204;28;20196;-79
2023/12/14 11:30:55;;;;;;;17.33;12.97;;;;;;;;;;4991483;28;20267;-79
2023/12/14 11:33:22;;;;;;;15.60;13.20;;;;;;;;;;4991791;28;20188;-79
2023/12/14 11:35:48;;;;;;;16.73;12.43;;;;;;;;;;4991906;28;20278;-79
2023/12/14 11:38:15;;;;;;;17.40;13.30;;;;;;;;;;4990423;28;20176;-79
2023/12/14 11:40:41;;;;;;;13.80;11.30;;;;;;;;;;4991316;28;20239;-79
2023/12/14 11:43:08;;;;;;;16.10;12.27;;;;;;;;;;4988810;28;20191;-79
2023/12/14 11:45:37;;;;;;;14.80;11.47;;;;;;;;;;4974503;28;20652;-79
2023/12/14 11:48:05;;;;;;;15.07;11.03;;;;;;;;;;4990114;28;20220;-79
2023/12/14 11:50:35;;;;;;;15.60;11.43;;;;;;;;;;4990827;28;20595;-79
2023/12/14 11:53:03;;;;;;;15.50;11.40;;;;;;;;;;4991073;28;20226;-79
2023/12/14 11:55:32;;;;;;;15.10;10.73;;;;;;;;;;4990280;28;20218;-79
2023/12/14 11:57:59;;;;;;;16.50;10.80;;;;;;;;;;4988187;28;20471;-79
2023/12/14 12:00:26;;;;;;;17.30;12.20;;;;;;;;;;4988022;28;20211;-79
2023/12/14 12:02:52;;;;;;;15.70;11.73;;;;;;;;;;4991125;28;20177;-79
2023/12/14 12:05:18;;;;;;;13.50;10.77;;;;;;;;;;4989916;28;20198;-79
2023/12/14 12:07:45;;;;;;;12.17;9.57;;;;;;;;;;4990320;28;20207;-79
2023/12/14 12:10:11;;;;;;;13.63;9.77;;;;;;;;;;4989010;28;20658;-79
2023/12/14 12:12:37;;;;;;;12.77;10.10;;;;;;;;;;4989686;28;20211;-79
2023/12/14 12:15:04;;;;;;;11.50;9.37;;;;;;;;;;4989057;28;20222;-79
2023/12/14 12:17:37;;;;;;;12.73;10.17;;;;;;;;;;4991340;28;20172;-79
2023/12/14 12:20:05;;;;;;;12.87;9.87;;;;;;;;;;4974725;28;20214;-79
2023/12/14 12:22:31;;;;;;;11.47;9.10;;;;;;;;;;4972006;28;20242;-79
2023/12/14 12:24:58;;;;;;;13.60;9.90;;;;;;;;;;4989688;28;20616;-78
2023/12/14 12:27:24;;;;;;;13.80;9.30;;;;;;;;;;4988070;28;20278;-78
2023/12/14 12:29:53;;;;;;;13.40;9.70;;;;;;;;;;4989860;28;20290;-78
2023/12/14 12:32:19;;;;;;;13.93;9.90;;;;;;;;;;4988627;28;20278;-78
2023/12/14 12:34:45;;;;;;;12.67;8.57;;;;;;;;;;4989273;28;20246;-78
2023/12/14 12:37:11;;;;;;;10.23;8.20;;;;;;;;;;4988427;28;20191;-78
2023/12/14 12:39:38;;;;;;;10.27;8.00;;;;;;;;;;4989874;28;20302;-78
2023/12/14 12:42:05;;;;;;;10.10;7.73;;;;;;;;;;4989867;28;20644;-78
2023/12/14 12:44:31;;;;;;;10.73;7.80;;;;;;;;;;4988118;28;20458;-78
2023/12/14 12:46:58;;;;;;;10.10;7.77;;;;;;;;;;4989202;28;20258;-78
2023/12/14 12:49:25;;;;;;;10.07;7.97;;;;;;;;;;4955414;28;20303;-78
2023/12/14 12:51:51;;;;;;;11.03;8.20;;;;;;;;;;4990342;28;20218;-78
2023/12/14 12:54:17;;;;;;;11.77;8.87;;;;;;;;;;4990072;28;20188;-78
2023/12/14 12:56:43;;;;;;;11.57;8.50;;;;;;;;;;4987862;28;20180;-78
2023/12/14 12:59:09;;;;;;;12.63;8.87;;;;;;;;;;4972128;28;20234;-79
2023/12/14 13:01:36;;;;;;;12.00;8.33;;;;;;;;;;4971784;28;20283;-78
2023/12/14 13:04:04;;;;;;;11.83;8.37;;;;;;;;;;4989041;28;20180;-78
2023/12/14 13:06:30;;;;;;;12.43;8.00;;;;;;;;;;4988576;28;20184;-78
2023/12/14 13:08:56;;;;;;;11.53;8.43;;;;;;;;;;4988566;28;20219;-78
2023/12/14 13:11:22;;;;;;;11.00;9.00;;;;;;;;;;4971501;28;20215;-78
2023/12/14 13:13:48;;;;;;;11.13;8.80;;;;;;;;;;4989004;28;20200;-79
2023/12/14 13:16:16;;;;;;;10.40;8.47;;;;;;;;;;4990424;28;20277;-79
2023/12/14 13:18:43;;;;;;;11.37;8.90;;;;;;;;;;4973090;28;20274;-79
2023/12/14 13:21:09;;;;;;;9.87;7.77;;;;;;;;;;4976364;28;20184;-79
2023/12/14 13:23:35;;;;;;;10.87;8.07;;;;;;;;;;4993673;28;20676;-79
2023/12/14 13:26:01;;;;;;;10.80;8.23;;;;;;;;;;4992498;28;20722;-78
2023/12/14 13:28:27;;;;;;;12.20;9.10;;;;;;;;;;4990825;28;20234;-81
2023/12/14 13:30:54;;;;;;;9.83;7.53;;;;;;;;;;4991286;28;20219;-80
2023/12/14 13:33:21;;;;;;;11.90;8.70;;;;;;;;;;4993373;28;20696;-80
2023/12/14 13:35:47;;;;;;;9.53;7.70;;;;;;;;;;4976674;28;20203;-80
2023/12/14 13:38:13;;;;;;;9.83;7.87;;;;;;;;;;4992386;28;20196;-80
2023/12/14 13:40:39;;;;;;;11.07;8.67;;;;;;;;;;4993080;28;20214;-80
2023/12/14 13:43:10;;;;;;;11.10;8.87;;;;;;;;;;4992889;28;20604;-80
2023/12/14 13:45:36;;;;;;;9.63;7.60;;;;;;;;;;4992396;28;20227;-80
2023/12/14 13:48:03;;;;;;;9.87;7.87;;;;;;;;;;4993770;28;20188;-80
2023/12/14 13:50:29;;;;;;;9.20;7.37;;;;;;;;;;4991179;28;20717;-80
2023/12/14 13:52:55;;;;;;;9.30;7.70;;;;;;;;;;5008452;28;20200;-80
2023/12/14 13:55:22;;;;;;;9.57;8.10;;;;;;;;;;4990723;28;20219;-80
2023/12/14 13:57:48;;;;;;;12.07;9.30;;;;;;;;;;4971115;28;20184;-80
2023/12/14 14:00:16;;;;;;;14.53;9.97;;;;;;;;;;4987183;28;20196;-80
2023/12/14 14:02:42;;;;;;;13.40;9.80;;;;;;;;;;4995336;28;20530;-80
2023/12/14 14:05:08;;;;;;;13.80;10.07;;;;;;;;;;4979034;28;20546;-80
2023/12/14 14:07:35;;;;;;;13.80;10.43;;;;;;;;;;4994354;28;20248;-80
2023/12/14 14:10:01;;;;;;;14.67;10.57;;;;;;;;;;4975593;28;20228;-80
2023/12/14 14:12:27;;;;;;;15.17;9.93;;;;;;;;;;4977125;28;20211;-80
2023/12/14 14:14:53;;;;;;;13.33;9.90;;;;;;;;;;4994567;28;20586;-80